createdAt,value
2018-10-17T00:02:37.812Z,37.50
2018-10-17T00:05:07.571Z,36.83
2018-10-17T00:07:36.316Z,31.27
2018-10-17T00:10:05.777Z,31.93
2018-10-17T01:02:36.546Z,36.17
2018-10-17T01:05:05.295Z,37.97
2018-10-17T01:07:34.005Z,34.10
2018-10-17T01:10:02.917Z,35.30
2018-10-17T02:02:43.753Z,28.00
2018-10-17T02:05:12.518Z,26.70
2018-10-17T02:07:41.155Z,25.57
2018-10-17T03:02:37.592Z,33.63
2018-10-17T03:05:06.414Z,34.60
2018-10-17T03:07:35.090Z,29.70
2018-10-17T03:10:04.019Z,28.87
2018-10-17T04:02:39.026Z,27.47
2018-10-17T04:05:08.188Z,27.17
2018-10-17T04:07:36.997Z,26.90
2018-10-17T05:02:38.142Z,29.30
2018-10-17T05:05:06.840Z,31.53
2018-10-17T05:07:35.546Z,29.20
2018-10-17T05:10:04.277Z,26.03
2018-10-17T06:02:39.135Z,24.10
2018-10-17T06:05:08.695Z,27.50
2018-10-17T06:07:37.453Z,29.67
2018-10-17T07:02:39.558Z,41.30
2018-10-17T07:05:09.134Z,35.20
2018-10-17T07:07:37.848Z,42.80
2018-10-17T07:10:06.663Z,33.03
2018-10-17T08:02:42.873Z,52.53
2018-10-17T08:05:11.563Z,42.63
2018-10-17T08:07:40.270Z,41.90
2018-10-17T09:02:36.562Z,26.77
2018-10-17T09:05:05.590Z,26.53
2018-10-17T09:07:34.319Z,26.33
2018-10-17T09:10:03.115Z,25.10
2018-10-17T10:02:45.581Z,17.80
2018-10-17T10:05:14.309Z,17.77
2018-10-17T10:07:43.053Z,16.83
2018-10-17T11:02:38.018Z,12.73
2018-10-17T11:05:06.859Z,13.67
2018-10-17T11:07:35.485Z,13.30
2018-10-17T11:10:04.846Z,12.60
2018-10-17T12:02:37.893Z,13.90
2018-10-17T12:05:09.002Z,14.47
2018-10-17T12:07:37.449Z,14.40
2018-10-17T12:10:06.869Z,14.00
2018-10-17T13:02:38.446Z,12.90
2018-10-17T13:05:08.530Z,13.13
2018-10-17T13:07:37.214Z,12.97
2018-10-17T13:10:07.570Z,12.95
2018-10-17T14:02:38.376Z,40.77
2018-10-17T14:05:07.347Z,19.97
2018-10-17T14:07:36.061Z,26.23
2018-10-17T14:10:05.262Z,29.47
2018-10-17T15:02:39.849Z,13.57
2018-10-17T15:05:08.752Z,13.83
2018-10-17T15:07:37.414Z,14.70
2018-10-17T15:10:06.416Z,15.50
2018-10-17T16:02:41.883Z,17.80
2018-10-17T16:05:11.558Z,21.83
2018-10-17T16:07:40.475Z,18.93
2018-10-17T17:02:39.925Z,22.93
2018-10-17T17:05:11.526Z,21.60
2018-10-17T17:07:40.547Z,21.27
2018-10-17T18:02:36.639Z,48.97
2018-10-17T18:05:05.882Z,67.53
2018-10-17T18:07:34.572Z,54.00
2018-10-17T18:10:03.308Z,48.93
2018-10-17T19:02:38.128Z,43.23
2018-10-17T19:05:06.850Z,37.77
2018-10-17T19:07:35.651Z,92.13
2018-10-17T19:10:04.847Z,92.97
2018-10-17T20:02:38.205Z,65.90
2018-10-17T20:05:06.998Z,62.03
2018-10-17T20:07:35.732Z,58.47
2018-10-17T20:10:04.607Z,56.33
2018-10-17T21:02:39.225Z,71.40
2018-10-17T21:05:08.069Z,75.97
2018-10-17T21:07:36.896Z,65.87
2018-10-17T22:02:43.716Z,97.13
2018-10-17T22:05:12.462Z,90.00
2018-10-17T22:07:41.162Z,92.03
2018-10-17T23:02:41.528Z,66.03
2018-10-17T23:05:10.306Z,66.00
2018-10-17T23:07:38.984Z,61.80
2018-10-17T23:10:07.688Z,59.10
